Time;durP1;ratioP1;P1;durP2;ratioP2;P2;SDS_P1;SDS_P2;PMS_P1;PMS_P2;Temp;Humidity;BMP_temperature;BMP_pressure;BME280_temperature;BME280_humidity;BME280_pressure;Samples;Min_cycle;Max_cycle;Signal;HPM_P1;HPM_P2
2022/05/22 00:01:35;;;;;;;0.08;0.08;;;;;;;20.58;49.98;98468.31;5029896;28;20041;-84
2022/05/22 00:04:00;;;;;;;0.10;0.10;;;;;;;20.58;50.17;98468.31;5029579;28;20063;-84
2022/05/22 00:06:26;;;;;;;0.10;0.10;;;;;;;20.54;50.27;98470.19;5029755;28;20671;-84
2022/05/22 00:08:51;;;;;;;0.05;0.05;;;;;;;20.50;50.39;98463.91;5029559;28;20099;-84
2022/05/22 00:11:17;;;;;;;0.00;0.00;;;;;;;20.39;50.60;98466.38;5031254;28;20057;-84
2022/05/22 00:13:42;;;;;;;0.00;0.00;;;;;;;20.34;50.59;98470.16;5029655;28;20034;-84
2022/05/22 00:18:52;;;;;;;0.10;0.10;;;;;;;20.25;50.62;98459.50;5030551;28;20048;-84
2022/05/22 00:21:17;;;;;;;0.00;0.00;;;;;;;20.24;50.35;98457.94;5029727;28;20492;-84
2022/05/22 00:23:43;;;;;;;0.00;0.00;;;;;;;20.22;50.56;98454.00;5030560;28;20031;-84
2022/05/22 00:26:09;;;;;;;0.00;0.00;;;;;;;20.21;50.35;98458.63;5029567;28;20397;-84
2022/05/22 00:28:34;;;;;;;0.10;0.10;;;;;;;20.19;49.35;98466.34;5029607;28;20048;-83
2022/05/22 00:30:59;;;;;;;0.00;0.00;;;;;;;20.18;48.75;98459.34;5029471;28;20030;-84
2022/05/22 00:33:27;;;;;;;0.10;0.10;;;;;;;20.17;48.54;98455.06;5029575;28;20033;-84
2022/05/22 00:35:53;;;;;;;0.10;0.10;;;;;;;20.15;48.80;98452.72;5029264;28;20049;-83
2022/05/22 00:38:18;;;;;;;0.10;0.10;;;;;;;20.21;48.40;98450.47;5029460;28;20032;-84
2022/05/22 00:40:44;;;;;;;0.00;0.00;;;;;;;20.23;48.27;98452.88;5029387;28;20041;-84
2022/05/22 00:43:31;;;;;;;0.00;0.00;;;;;;;20.21;48.42;98450.47;5032467;28;20033;-84
2022/05/22 00:45:57;;;;;;;0.00;0.00;;;;;;;20.17;48.54;98441.47;5033192;28;20036;-83
2022/05/22 00:48:24;;;;;;;0.10;0.10;;;;;;;20.12;49.70;98449.91;5033545;28;20325;-83
2022/05/22 00:50:51;;;;;;;0.00;0.00;;;;;;;20.03;50.18;98449.31;5033097;28;20374;-83
2022/05/22 00:53:18;;;;;;;0.10;0.10;;;;;;;20.00;50.26;98450.81;5033257;28;20030;-83
2022/05/22 00:55:44;;;;;;;0.10;0.10;;;;;;;19.93;50.53;98445.22;5033131;28;20025;-83
2022/05/22 00:58:22;;;;;;;0.00;0.00;;;;;;;19.89;50.96;98450.56;5033087;28;20084;-83
2022/05/22 01:00:48;;;;;;;0.10;0.10;;;;;;;19.93;50.56;98448.72;5032946;28;20627;-84
2022/05/22 01:03:29;;;;;;;0.10;0.10;;;;;;;19.91;50.61;98440.16;5032977;28;20118;-84
2022/05/22 01:05:55;;;;;;;0.08;0.08;;;;;;;19.90;50.83;98444.00;5032786;28;20064;-84
2022/05/22 01:08:21;;;;;;;0.10;0.10;;;;;;;19.86;50.59;98440.44;5033085;28;20037;-84
2022/05/22 01:10:54;;;;;;;0.08;0.08;;;;;;;19.80;50.02;98439.09;5033104;28;20021;-84
2022/05/22 01:13:26;;;;;;;0.00;0.00;;;;;;;19.80;50.05;98431.72;5033050;28;20030;-84
2022/05/22 01:15:51;;;;;;;0.10;0.10;;;;;;;19.73;50.46;98415.28;5032681;28;20025;-83
2022/05/22 01:18:17;;;;;;;0.10;0.10;;;;;;;19.72;50.39;98426.50;5034038;28;20033;-83
2022/05/22 01:20:48;;;;;;;0.03;0.03;;;;;;;19.68;51.05;98419.06;5032759;28;20033;-83
2022/05/22 01:23:14;;;;;;;0.00;0.00;;;;;;;19.61;51.26;98418.88;5032833;28;20095;-84
2022/05/22 01:25:40;;;;;;;0.00;0.00;;;;;;;19.61;51.47;98427.03;5032802;28;20136;-84
2022/05/22 01:28:08;;;;;;;0.10;0.10;;;;;;;19.59;51.48;98421.19;5032430;28;20464;-84
2022/05/22 01:30:33;;;;;;;0.10;0.10;;;;;;;19.60;51.28;98419.25;5032626;28;20507;-84
2022/05/22 01:32:59;;;;;;;0.00;0.00;;;;;;;19.56;51.49;98413.72;5032313;28;20117;-84
2022/05/22 01:35:27;;;;;;;0.03;0.03;;;;;;;19.57;51.15;98417.25;5032390;28;20053;-84
2022/05/22 01:37:53;;;;;;;0.52;0.52;;;;;;;19.47;51.40;98408.50;5032271;28;20021;-83
2022/05/22 01:40:19;;;;;;;0.10;0.10;;;;;;;19.45;51.45;98415.41;5032400;28;20044;-84
2022/05/22 01:42:45;;;;;;;0.10;0.10;;;;;;;19.41;51.73;98404.47;5032108;28;20028;-84
2022/05/22 01:45:18;;;;;;;0.00;0.00;;;;;;;19.43;51.81;98414.97;5032354;28;20025;-84
2022/05/22 01:47:44;;;;;;;0.10;0.10;;;;;;;19.41;51.95;98418.03;5032124;28;20172;-83
2022/05/22 01:50:11;;;;;;;0.10;0.10;;;;;;;19.40;52.10;98413.75;5032282;28;20198;-84
2022/05/22 01:52:37;;;;;;;0.00;0.00;;;;;;;19.41;52.01;98409.91;5031898;28;20022;-84
2022/05/22 01:55:04;;;;;;;0.10;0.10;;;;;;;19.41;51.95;98409.91;5031066;28;20029;-83
2022/05/22 01:57:30;;;;;;;0.10;0.10;;;;;;;19.43;52.02;98409.53;5032045;28;20026;-84
2022/05/22 01:59:56;;;;;;;0.10;0.10;;;;;;;19.43;51.79;98406.84;5032003;28;20104;-83
2022/05/22 02:02:22;;;;;;;0.00;0.00;;;;;;;19.43;51.57;98413.06;5033040;28;20035;-83
2022/05/22 02:04:48;;;;;;;0.00;0.00;;;;;;;19.40;51.24;98396.69;5031872;28;20037;-84
2022/05/22 02:09:57;;;;;;;0.10;0.10;;;;;;;19.42;51.38;98405.25;5032998;28;20130;-84
2022/05/22 02:12:22;;;;;;;0.10;0.10;;;;;;;19.36;52.03;98400.09;5031977;28;20493;-84
2022/05/22 02:14:48;;;;;;;0.10;0.10;;;;;;;19.32;52.12;98396.53;5031606;28;20056;-83
2022/05/22 02:17:13;;;;;;;0.10;0.10;;;;;;;19.30;52.53;98398.78;5031624;28;20027;-83
2022/05/22 02:19:39;;;;;;;0.00;0.00;;;;;;;19.29;52.53;98399.94;5031634;28;20129;-83
2022/05/22 02:22:04;;;;;;;0.00;0.00;;;;;;;19.27;52.55;98401.41;5031435;28;20022;-84
2022/05/22 02:24:29;;;;;;;0.10;0.10;;;;;;;19.23;52.55;98390.47;5031597;28;20413;-84
2022/05/22 02:26:55;;;;;;;0.10;0.10;;;;;;;19.19;52.80;98398.53;5031235;28;20064;-84
2022/05/22 02:29:21;;;;;;;0.00;0.00;;;;;;;19.18;52.81;98396.94;5031462;28;20025;-84
2022/05/22 02:31:47;;;;;;;0.03;0.03;;;;;;;19.13;52.54;98399.91;5031059;28;20021;-84
2022/05/22 02:34:12;;;;;;;0.03;0.03;;;;;;;19.12;52.63;98403.75;5031182;28;20497;-84
2022/05/22 02:36:37;;;;;;;0.00;0.00;;;;;;;19.13;52.71;98401.84;5031480;28;20481;-84
2022/05/22 02:39:03;;;;;;;0.10;0.10;;;;;;;19.12;52.53;98394.84;5030869;28;20132;-83
2022/05/22 02:41:28;;;;;;;0.10;0.10;;;;;;;19.11;52.54;98401.41;5031231;28;20432;-84
2022/05/22 02:43:54;;;;;;;0.00;0.00;;;;;;;19.04;52.56;98394.69;5030991;28;20029;-84
2022/05/22 02:46:21;;;;;;;0.00;0.00;;;;;;;19.11;52.31;98398.69;5031405;28;20477;-85
2022/05/22 02:48:47;;;;;;;0.10;0.10;;;;;;;19.12;51.96;98398.34;5030834;28;20029;-85
2022/05/22 02:51:15;;;;;;;0.08;0.08;;;;;;;19.08;52.27;98392.06;5031073;28;20025;-84
2022/05/22 02:53:41;;;;;;;;;;;;;;;19.09;52.47;98399.06;5031403;28;20120;-84
2022/05/22 02:56:13;;;;;;;0.00;0.00;;;;;;;19.08;52.46;98392.06;5030704;28;20003;-84
2022/05/22 02:58:38;;;;;;;0.00;0.00;;;;;;;19.08;52.16;98397.47;5030896;28;20030;-84
2022/05/22 03:01:04;;;;;;;0.00;0.00;;;;;;;19.12;52.12;98392.91;5030683;28;20115;-84
2022/05/22 03:03:30;;;;;;;0.00;0.00;;;;;;;19.13;52.26;98388.31;5030781;28;20025;-84
2022/05/22 03:08:40;;;;;;;0.10;0.10;;;;;;;19.12;52.50;98403.75;5032093;28;20111;-84
2022/05/22 03:11:06;;;;;;;0.10;0.10;;;;;;;19.14;52.42;98406.13;5030432;28;20029;-84
2022/05/22 03:13:32;;;;;;;0.10;0.10;;;;;;;19.15;52.55;98397.66;5031605;28;20030;-84
2022/05/22 03:15:58;;;;;;;0.10;0.10;;;;;;;19.19;52.54;98392.34;5030109;28;20033;-84
2022/05/22 03:18:24;;;;;;;0.00;0.00;;;;;;;19.20;52.43;98386.56;5030502;28;20029;-85
2022/05/22 03:20:49;;;;;;;0.00;0.00;;;;;;;19.24;52.64;98402.91;5030382;28;20033;-84
2022/05/22 03:23:15;;;;;;;0.03;0.03;;;;;;;19.21;52.85;98390.03;5030438;28;20112;-84
2022/05/22 03:25:42;;;;;;;0.00;0.00;;;;;;;19.19;52.59;98395.81;5030488;28;20116;-84
2022/05/22 03:28:07;;;;;;;0.10;0.10;;;;;;;19.20;52.89;98391.97;5030311;28;20033;-85
2022/05/22 03:30:32;;;;;;;0.10;0.10;;;;;;;19.21;52.82;98400.88;5030351;28;20385;-84
2022/05/22 03:32:58;;;;;;;0.00;0.00;;;;;;;19.27;52.88;98398.69;5030030;28;20033;-84
2022/05/22 03:35:24;;;;;;;0.00;0.00;;;;;;;19.31;53.02;98396.84;5030122;28;20508;-84
2022/05/22 03:37:49;;;;;;;0.10;0.10;;;;;;;19.34;52.95;98402.38;5030093;28;20383;-84
2022/05/22 03:40:15;;;;;;;0.03;0.03;;;;;;;19.36;52.90;98400.09;5030243;28;20473;-84
2022/05/22 03:42:41;;;;;;;0.08;0.08;;;;;;;19.41;52.65;98407.19;5030163;28;20021;-83
2022/05/22 03:45:08;;;;;;;0.10;0.10;;;;;;;19.42;52.60;98402.53;5029906;28;20029;-83
2022/05/22 03:47:33;;;;;;;0.10;0.10;;;;;;;19.44;52.64;98408.41;5031154;28;20179;-83
2022/05/22 03:50:04;;;;;;;0.00;0.00;;;;;;;19.41;52.94;98392.81;5029797;28;20120;-83
2022/05/22 03:52:32;;;;;;;0.10;0.10;;;;;;;19.40;53.30;98396.69;5030030;28;20056;-83
2022/05/22 03:54:58;;;;;;;0.10;0.10;;;;;;;19.47;53.19;98403.06;5029870;28;20330;-83
2022/05/22 03:57:23;;;;;;;0.10;0.10;;;;;;;19.51;53.22;98401.22;5029853;28;20315;-83
2022/05/22 03:59:49;;;;;;;0.08;0.08;;;;;;;19.55;53.20;98406.72;5029719;28;20040;-83
2022/05/22 04:02:14;;;;;;;0.10;0.10;;;;;;;19.50;53.43;98407.00;5029923;28;20048;-83
2022/05/22 04:04:40;;;;;;;0.10;0.10;;;;;;;19.53;53.69;98403.59;5029930;28;20034;-83
2022/05/22 04:07:05;;;;;;;0.10;0.10;;;;;;;19.49;53.84;98394.59;5029671;28;20481;-83
2022/05/22 04:09:31;;;;;;;0.10;0.10;;;;;;;19.54;54.05;98399.72;5029739;28;20029;-83
2022/05/22 04:11:56;;;;;;;0.00;0.00;;;;;;;19.59;54.09;98410.34;5029722;28;20373;-83
2022/05/22 04:14:22;;;;;;;0.00;0.00;;;;;;;19.63;54.26;98405.75;5029703;28;20053;-84
2022/05/22 04:16:48;;;;;;;0.10;0.10;;;;;;;19.64;54.07;98399.22;5030235;28;20459;-83
2022/05/22 04:19:15;;;;;;;0.00;0.00;;;;;;;19.75;54.30;98410.31;5033792;28;20111;-84
2022/05/22 04:21:41;;;;;;;0.30;0.30;;;;;;;19.69;54.92;98403.59;5033801;28;20496;-83
2022/05/22 04:26:51;;;;;;;0.10;0.10;;;;;;;19.95;55.39;98396.81;5034970;28;20052;-84
2022/05/22 04:29:18;;;;;;;0.03;0.03;;;;;;;20.04;55.56;98397.38;5033597;28;20496;-84
2022/05/22 04:31:43;;;;;;;0.08;0.08;;;;;;;20.17;55.45;98398.06;5033345;28;20025;-84
2022/05/22 04:34:09;;;;;;;0.03;0.03;;;;;;;20.31;55.68;98398.34;5033002;28;20060;-84
2022/05/22 04:36:34;;;;;;;1.13;1.13;;;;;;;20.42;55.53;98404.00;5033578;28;20029;-83
2022/05/22 04:39:00;;;;;;;0.10;0.10;;;;;;;20.54;55.32;98408.47;5033097;28;20412;-83
2022/05/22 04:41:26;;;;;;;0.10;0.10;;;;;;;20.72;54.92;98411.56;5033667;28;20033;-84
2022/05/22 04:43:51;;;;;;;0.10;0.10;;;;;;;20.87;54.39;98414.56;5033088;28;20116;-84
2022/05/22 04:46:17;;;;;;;0.10;0.10;;;;;;;21.00;54.02;98410.53;5033215;28;20124;-83
2022/05/22 04:48:42;;;;;;;0.10;0.10;;;;;;;21.12;53.57;98420.44;5034866;28;20065;-85
2022/05/22 04:51:08;;;;;;;0.13;0.13;;;;;;;21.30;53.14;98422.69;5033127;28;20504;-84
2022/05/22 04:53:33;;;;;;;0.10;0.10;;;;;;;21.31;53.03;98426.97;5033398;28;20547;-84
2022/05/22 04:55:59;;;;;;;0.00;0.00;;;;;;;21.38;52.71;98425.16;5033070;28;20448;-84
2022/05/22 04:58:25;;;;;;;0.10;0.10;;;;;;;21.52;52.50;98427.34;5033130;28;20120;-84
2022/05/22 05:00:50;;;;;;;0.10;0.10;;;;;;;21.54;51.93;98427.72;5032576;28;20022;-83
2022/05/22 05:03:16;;;;;;;0.05;0.05;;;;;;;21.59;51.89;98415.78;5033182;28;20029;-83
2022/05/22 05:05:41;;;;;;;0.00;0.00;;;;;;;21.70;51.42;98426.84;5033005;28;20017;-83
2022/05/22 05:08:07;;;;;;;0.20;0.20;;;;;;;21.69;51.53;98426.06;5032864;28;20111;-83
2022/05/22 05:10:32;;;;;;;0.10;0.10;;;;;;;21.78;51.24;98420.38;5032955;28;20103;-83
2022/05/22 05:13:00;;;;;;;0.10;0.10;;;;;;;21.86;50.95;98413.06;5032749;28;20038;-83
2022/05/22 05:15:25;;;;;;;0.00;0.00;;;;;;;21.94;51.14;98405.81;5033006;28;20469;-82
2022/05/22 05:17:51;;;;;;;0.05;0.05;;;;;;;21.99;50.94;98403.53;5032378;28;20291;-82
2022/05/22 05:20:23;;;;;;;0.08;0.08;;;;;;;22.08;50.73;98400.53;5032785;28;20039;-85
2022/05/22 05:22:48;;;;;;;0.10;0.10;;;;;;;22.11;50.82;98407.22;5032602;28;20029;-85
2022/05/22 05:25:15;;;;;;;0.00;0.00;;;;;;;22.18;50.61;98397.19;5032718;28;20421;-85
2022/05/22 05:27:40;;;;;;;0.10;0.10;;;;;;;22.25;50.39;98407.38;5032714;28;20152;-83
2022/05/22 05:30:07;;;;;;;0.15;0.15;;;;;;;22.30;50.35;98414.44;5032292;28;20060;-84
2022/05/22 05:32:32;;;;;;;0.10;0.10;;;;;;;22.37;50.07;98411.81;5031702;28;20032;-84
2022/05/22 05:35:09;;;;;;;0.22;0.22;;;;;;;22.39;50.06;98398.63;5032061;28;20049;-83
2022/05/22 05:37:35;;;;;;;0.05;0.05;;;;;;;22.46;50.01;98409.63;5031962;28;20109;-84
2022/05/22 05:40:00;;;;;;;0.10;0.10;;;;;;;22.52;49.91;98410.06;5032171;28;20037;-84
2022/05/22 05:42:32;;;;;;;0.20;0.20;;;;;;;22.60;49.51;98410.94;5032115;28;20029;-85
2022/05/22 05:44:57;;;;;;;0.00;0.00;;;;;;;22.61;49.80;98407.84;5032143;28;20099;-85
2022/05/22 05:47:23;;;;;;;0.10;0.10;;;;;;;22.68;49.51;98412.59;5031992;28;20449;-85
2022/05/22 05:49:48;;;;;;;0.15;0.15;;;;;;;22.76;48.91;98403.31;5032132;28;20036;-84
2022/05/22 05:52:15;;;;;;;0.03;0.03;;;;;;;22.80;49.23;98404.16;5032293;28;20127;-84
2022/05/22 05:54:40;;;;;;;0.10;0.10;;;;;;;22.88;49.08;98406.94;5032155;28;20076;-84
2022/05/22 05:57:06;;;;;;;0.10;0.10;;;;;;;22.90;48.90;98393.72;5031883;28;20124;-84
2022/05/22 05:59:33;;;;;;;0.25;0.25;;;;;;;22.99;48.51;98391.47;5032029;28;20025;-85
2022/05/22 06:01:59;;;;;;;0.00;0.00;;;;;;;23.10;48.63;98397.81;5031919;28;20034;-85
2022/05/22 06:04:25;;;;;;;0.10;0.10;;;;;;;23.20;48.10;98388.19;5031936;28;20029;-83
2022/05/22 06:06:50;;;;;;;0.00;0.00;;;;;;;23.28;48.19;98394.50;5031772;28;20485;-85
2022/05/22 06:09:16;;;;;;;0.43;0.43;;;;;;;23.41;48.42;98398.50;5031886;28;20487;-83
2022/05/22 06:11:41;;;;;;;0.20;0.20;;;;;;;23.50;48.60;98398.94;5031779;28;20040;-83
2022/05/22 06:14:08;;;;;;;0.40;0.40;;;;;;;23.56;48.64;98393.13;5031607;28;20103;-85
2022/05/22 06:16:33;;;;;;;0.00;0.00;;;;;;;23.52;49.04;98397.78;5031754;28;20033;-85
2022/05/22 06:18:59;;;;;;;0.00;0.00;;;;;;;23.50;49.44;98401.66;5031291;28;20029;-85
2022/05/22 06:21:24;;;;;;;0.50;0.50;;;;;;;23.56;49.64;98409.50;5031583;28;20041;-85
2022/05/22 06:23:50;;;;;;;2.15;0.40;;;;;;;23.60;49.60;98396.66;5031473;28;20025;-86
2022/05/22 06:26:17;;;;;;;0.13;0.13;;;;;;;23.64;50.28;98395.53;5031665;28;20030;-86
2022/05/22 06:28:43;;;;;;;0.43;0.43;;;;;;;23.82;50.24;98400.31;5031481;28;20504;-86
2022/05/22 06:31:11;;;;;;;0.30;0.30;;;;;;;24.07;50.02;98405.16;5031265;28;20056;-85
2022/05/22 06:33:37;;;;;;;0.13;0.13;;;;;;;24.49;49.55;98400.28;5031998;28;20052;-86
2022/05/22 06:36:08;;;;;;;0.00;0.00;;;;;;;24.93;47.27;98404.72;5030682;28;20046;-85
2022/05/22 06:41:17;;;;;;;0.65;0.65;;;;;;;25.75;44.13;98405.91;5032189;28;20043;-86
2022/05/22 06:43:46;;;;;;;0.20;0.20;;;;;;;26.14;43.61;98407.78;5031177;28;20021;-86
2022/05/22 06:46:11;;;;;;;0.00;0.00;;;;;;;26.50;43.14;98407.66;5031141;28;20032;-85
2022/05/22 06:48:37;;;;;;;0.10;0.10;;;;;;;26.82;42.75;98411.44;5031092;28;20033;-86
2022/05/22 06:51:02;;;;;;;1.35;0.28;;;;;;;27.15;41.12;98412.00;5030811;28;20026;-87
2022/05/22 06:53:28;;;;;;;0.00;0.00;;;;;;;27.43;40.86;98408.25;5032572;28;20025;-86
2022/05/22 06:55:53;;;;;;;0.15;0.15;;;;;;;27.60;40.81;98403.78;5030878;28;20037;-86
2022/05/22 06:58:18;;;;;;;0.77;0.73;;;;;;;27.83;40.75;98401.59;5030816;28;20083;-86
2022/05/22 07:00:44;;;;;;;0.00;0.00;;;;;;;27.94;40.00;98405.00;5030857;28;20325;-86
2022/05/22 07:03:09;;;;;;;0.10;0.10;;;;;;;28.17;40.53;98406.38;5031077;28;20481;-86
2022/05/22 07:05:35;;;;;;;0.10;0.10;;;;;;;28.39;40.00;98401.38;5030799;28;20037;-86
2022/05/22 07:08:00;;;;;;;0.00;0.00;;;;;;;28.48;39.64;98400.88;5030673;28;20021;-85
2022/05/22 07:13:11;;;;;;;0.00;0.00;;;;;;;28.62;38.66;98391.66;5031582;28;20041;-85
2022/05/22 07:15:38;;;;;;;0.00;0.00;;;;;;;28.67;37.41;98391.19;5030882;28;20451;-85
2022/05/22 07:18:03;;;;;;;0.70;0.70;;;;;;;28.74;37.94;98397.41;5030361;28;20032;-85
2022/05/22 07:20:29;;;;;;;0.32;0.32;;;;;;;28.80;36.54;98396.94;5030466;28;20475;-85
2022/05/22 07:22:54;;;;;;;0.00;0.00;;;;;;;28.87;36.11;98399.59;5030382;28;20039;-86
2022/05/22 07:25:20;;;;;;;0.10;0.10;;;;;;;28.85;32.99;98394.50;5030163;28;20033;-85
2022/05/22 07:27:45;;;;;;;0.10;0.10;;;;;;;28.71;29.65;98392.75;5030350;28;20029;-85
2022/05/22 07:30:12;;;;;;;0.10;0.10;;;;;;;28.71;29.58;98397.44;5030198;28;20021;-86
2022/05/22 07:32:37;;;;;;;1.65;0.35;;;;;;;28.78;29.33;98391.06;5030271;28;20017;-86
2022/05/22 07:35:02;;;;;;;0.20;0.20;;;;;;;28.83;29.10;98390.59;5031619;28;20049;-85
2022/05/22 07:37:28;;;;;;;0.05;0.05;;;;;;;28.87;28.79;98389.34;5030286;28;20030;-85
2022/05/22 07:39:53;;;;;;;0.10;0.10;;;;;;;28.90;28.53;98390.50;5030025;28;20021;-87
2022/05/22 07:42:19;;;;;;;0.10;0.10;;;;;;;28.89;27.94;98386.19;5030250;28;20382;-84
2022/05/22 07:44:44;;;;;;;0.00;0.00;;;;;;;28.86;27.88;98381.53;5030373;28;20383;-85
2022/05/22 07:47:09;;;;;;;0.00;0.00;;;;;;;28.84;27.62;98379.16;5031550;28;20469;-86
2022/05/22 07:52:19;;;;;;;0.00;0.00;;;;;;;28.91;28.44;98376.31;5031000;28;20052;-86
2022/05/22 07:54:45;;;;;;;0.17;0.17;;;;;;;28.95;27.23;98373.50;5030336;28;20033;-86
2022/05/22 07:57:10;;;;;;;0.00;0.00;;;;;;;28.94;27.59;98369.19;5029947;28;20032;-86
2022/05/22 07:59:37;;;;;;;0.00;0.00;;;;;;;29.01;28.38;98369.09;5030355;28;20033;-86
2022/05/22 08:02:05;;;;;;;0.10;0.10;;;;;;;29.02;27.77;98372.63;5034566;28;20025;-87
2022/05/22 08:04:31;;;;;;;0.00;0.00;;;;;;;29.12;27.05;98363.41;5037249;28;20048;-86
2022/05/22 08:06:56;;;;;;;0.25;0.10;;;;;;;29.21;27.42;98366.41;5037512;28;20429;-86
2022/05/22 08:09:22;;;;;;;0.10;0.10;;;;;;;29.24;27.56;98362.03;5034315;28;20044;-85
2022/05/22 08:11:47;;;;;;;0.03;0.03;;;;;;;29.33;27.63;98365.06;5034552;28;20443;-85
2022/05/22 08:14:15;;;;;;;0.00;0.00;;;;;;;29.37;26.92;98368.53;5035685;28;20095;-85
2022/05/22 08:16:41;;;;;;;0.55;0.55;;;;;;;29.37;27.38;98360.28;5030065;28;20025;-85
2022/05/22 08:19:06;;;;;;;0.00;0.00;;;;;;;29.47;27.66;98360.50;5029531;28;20037;-82
2022/05/22 08:21:32;;;;;;;0.00;0.00;;;;;;;29.49;27.36;98363.59;5029664;28;20029;-83
2022/05/22 08:23:59;;;;;;;0.00;0.00;;;;;;;29.60;27.66;98353.19;5029485;28;20440;-85
2022/05/22 08:26:27;;;;;;;0.10;0.10;;;;;;;29.64;26.84;98351.13;5029710;28;20025;-85
2022/05/22 08:28:52;;;;;;;2.88;0.17;;;;;;;29.61;26.37;98357.47;5029333;28;20037;-85
2022/05/22 08:31:18;;;;;;;0.00;0.00;;;;;;;29.72;27.24;98354.53;5031218;28;20436;-85
2022/05/22 08:33:43;;;;;;;0.00;0.00;;;;;;;29.84;27.19;98356.66;5029471;28;20044;-86
2022/05/22 08:36:09;;;;;;;0.00;0.00;;;;;;;29.81;26.77;98351.19;5029515;28;20092;-86
2022/05/22 08:38:34;;;;;;;0.00;0.00;;;;;;;29.84;26.83;98353.88;5029579;28;20033;-85
2022/05/22 08:41:08;;;;;;;0.00;0.00;;;;;;;29.86;26.82;98359.00;5029512;28;20030;-85
2022/05/22 08:43:41;;;;;;;0.10;0.10;;;;;;;29.94;28.10;98354.91;5029684;28;20091;-86
2022/05/22 08:46:11;;;;;;;0.10;0.10;;;;;;;30.01;28.06;98359.50;5029326;28;20474;-86
2022/05/22 08:48:54;;;;;;;0.00;0.00;;;;;;;30.09;28.17;98358.16;5029619;28;20033;-85
2022/05/22 08:51:37;;;;;;;0.00;0.00;;;;;;;30.17;27.13;98345.78;5029465;28;20040;-83
2022/05/22 08:54:27;;;;;;;0.10;0.10;;;;;;;30.30;27.42;98353.41;5029325;28;20041;-86
2022/05/22 08:59:43;;;;;;;0.10;0.10;;;;;;;30.33;26.88;98341.50;5030897;28;20187;-83
2022/05/22 09:02:35;;;;;;;0.10;0.10;;;;;;;30.37;27.14;98335.91;5029182;28;20516;-84
2022/05/22 09:05:07;;;;;;;0.10;0.10;;;;;;;30.35;26.48;98339.09;5033085;28;20124;-85
2022/05/22 09:08:03;;;;;;;0.00;0.00;;;;;;;30.35;27.01;98339.88;5033017;28;20029;-83
2022/05/22 09:10:50;;;;;;;0.00;0.00;;;;;;;30.31;27.37;98341.94;5034118;28;20510;-85
2022/05/22 09:13:33;;;;;;;0.00;0.00;;;;;;;30.25;27.28;98343.66;5032761;28;20330;-85
2022/05/22 09:16:20;;;;;;;0.03;0.03;;;;;;;30.13;26.72;98342.31;5033370;28;20033;-85
2022/05/22 09:18:51;;;;;;;0.15;0.15;;;;;;;30.01;26.30;98351.25;5034085;28;20026;-85
2022/05/22 09:21:52;;;;;;;0.00;0.00;;;;;;;29.95;26.61;98344.66;5032770;28;20037;-84
2022/05/22 09:24:30;;;;;;;0.03;0.03;;;;;;;29.84;26.83;98347.59;5032605;28;20025;-84
2022/05/22 09:27:11;;;;;;;0.20;0.20;;;;;;;29.76;27.17;98346.19;5032517;28;20041;-84
2022/05/22 09:29:51;;;;;;;0.00;0.00;;;;;;;29.77;27.32;98342.22;5032545;28;20045;-84
2022/05/22 09:32:35;;;;;;;0.08;0.08;;;;;;;29.73;27.35;98336.78;5032400;28;20025;-84
2022/05/22 09:35:18;;;;;;;0.00;0.00;;;;;;;29.85;27.52;98330.63;5032082;28;20084;-84
2022/05/22 09:38:05;;;;;;;0.00;0.00;;;;;;;29.87;27.49;98328.25;5032068;28;20025;-84
2022/05/22 09:40:47;;;;;;;0.00;0.00;;;;;;;29.98;26.98;98328.06;5032837;28;20115;-85
2022/05/22 09:43:27;;;;;;;0.03;0.03;;;;;;;30.07;27.24;98332.22;5033422;28;20553;-86
2022/05/22 09:46:12;;;;;;;0.00;0.00;;;;;;;30.09;26.71;98324.28;5033183;28;20052;-86
2022/05/22 09:48:49;;;;;;;0.10;0.10;;;;;;;30.08;25.82;98326.28;5032196;28;20467;-86
2022/05/22 09:51:36;;;;;;;0.00;0.00;;;;;;;30.07;26.04;98321.22;5031994;28;20120;-86
2022/05/22 09:54:16;;;;;;;0.13;0.13;;;;;;;30.01;25.37;98315.41;5031953;28;20041;-87
2022/05/22 09:57:32;;;;;;;0.10;0.10;;;;;;;29.89;25.82;98299.50;5032083;28;20481;-86
2022/05/22 10:00:07;;;;;;;0.23;0.23;;;;;;;29.86;26.24;98307.41;5031749;28;20022;-86
2022/05/22 10:03:14;;;;;;;0.10;0.10;;;;;;;29.78;26.97;98305.97;5033291;28;20104;-84
2022/05/22 10:05:52;;;;;;;0.00;0.00;;;;;;;29.69;27.26;98298.28;5030356;28;20037;-86
2022/05/22 10:08:34;;;;;;;0.00;0.00;;;;;;;29.67;28.12;98297.16;5031622;28;20402;-86
2022/05/22 10:11:11;;;;;;;0.00;0.00;;;;;;;29.68;26.44;98299.47;5031666;28;20125;-85
2022/05/22 10:13:58;;;;;;;0.10;0.10;;;;;;;29.70;25.13;98291.56;5031627;28;20083;-86
2022/05/22 10:16:54;;;;;;;0.00;0.00;;;;;;;29.79;25.59;98295.75;5031236;28;20030;-87
2022/05/22 10:19:50;;;;;;;0.10;0.10;;;;;;;29.89;24.60;98288.47;5031314;28;20105;-86
2022/05/22 10:22:25;;;;;;;0.00;0.00;;;;;;;29.92;24.15;98293.13;5031334;28;20033;-85
2022/05/22 10:25:01;;;;;;;0.03;0.03;;;;;;;29.93;24.71;98289.97;5031456;28;20473;-85
2022/05/22 10:27:59;;;;;;;0.00;0.00;;;;;;;29.96;24.65;98291.88;5031247;28;20052;-85
2022/05/22 10:30:47;;;;;;;0.00;0.00;;;;;;;29.95;25.27;98306.84;5031443;28;20039;-85
2022/05/22 10:33:37;;;;;;;0.00;0.00;;;;;;;29.98;26.17;98296.94;5032116;28;20029;-86
2022/05/22 10:36:03;;;;;;;0.00;0.00;;;;;;;29.95;26.53;98309.59;5030989;28;20057;-86
2022/05/22 10:38:35;;;;;;;0.00;0.00;;;;;;;29.90;26.22;98301.03;5031202;28;20029;-85
2022/05/22 10:44:06;;;;;;;0.00;0.00;;;;;;;29.91;26.37;98288.84;5032280;28;20090;-86
2022/05/22 10:46:31;;;;;;;0.00;0.00;;;;;;;29.94;26.09;98293.50;5031099;28;20030;-85
2022/05/22 10:48:57;;;;;;;0.00;0.00;;;;;;;29.95;26.38;98293.06;5030672;28;20029;-86
2022/05/22 10:51:28;;;;;;;0.30;0.30;;;;;;;30.02;25.78;98283.88;5031215;28;20054;-86
2022/05/22 10:53:57;;;;;;;1.95;0.75;;;;;;;30.13;25.98;98289.16;5031170;28;20164;-86
2022/05/22 10:56:31;;;;;;;0.00;0.00;;;;;;;30.16;25.38;98283.56;5030882;28;20183;-85
2022/05/22 10:59:17;;;;;;;0.00;0.00;;;;;;;30.23;25.48;98277.13;5030576;28;20029;-85
2022/05/22 11:01:43;;;;;;;0.00;0.00;;;;;;;30.27;25.12;98275.06;5030861;28;20385;-85
2022/05/22 11:04:14;;;;;;;0.00;0.00;;;;;;;30.37;25.07;98272.47;5030481;28;20103;-85
2022/05/22 11:07:00;;;;;;;0.00;0.00;;;;;;;30.41;25.05;98254.66;5030810;28;20191;-85
2022/05/22 11:09:31;;;;;;;0.00;0.00;;;;;;;30.42;24.72;98272.75;5030888;28;20036;-86
2022/05/22 11:12:07;;;;;;;0.00;0.00;;;;;;;30.36;25.85;98268.97;5030643;28;20032;-85
2022/05/22 11:14:35;;;;;;;0.10;0.10;;;;;;;30.29;24.28;98269.88;5032142;28;20033;-85
2022/05/22 11:17:30;;;;;;;0.00;0.00;;;;;;;30.21;24.64;98268.47;5030303;28;20032;-85
2022/05/22 11:20:00;;;;;;;0.00;0.00;;;;;;;30.11;24.79;98275.03;5016393;28;20452;-84
2022/05/22 11:22:37;;;;;;;0.00;0.00;;;;;;;29.99;24.39;98260.72;5030723;28;20120;-85
2022/05/22 11:25:21;;;;;;;0.00;0.00;;;;;;;29.87;25.16;98255.81;5030655;28;20029;-85
2022/05/22 11:27:55;;;;;;;0.63;0.40;;;;;;;29.84;25.50;98259.41;5030872;28;20053;-85
2022/05/22 11:30:35;;;;;;;0.20;0.20;;;;;;;29.81;25.83;98257.50;5030320;28;20025;-85
2022/05/22 11:33:20;;;;;;;0.00;0.00;;;;;;;29.84;25.76;98256.66;5029966;28;20033;-84
2022/05/22 11:36:14;;;;;;;13.20;1.80;;;;;;;29.77;25.68;98252.09;5030149;28;20049;-83
2022/05/22 11:39:13;;;;;;;0.10;0.10;;;;;;;29.76;26.21;98252.50;5027749;28;20069;-84
2022/05/22 11:41:49;;;;;;;0.00;0.00;;;;;;;29.71;26.43;98245.50;5031801;28;20033;-83
2022/05/22 11:44:36;;;;;;;0.00;0.00;;;;;;;29.68;26.09;98249.13;5029952;28;20041;-84
2022/05/22 11:47:38;;;;;;;0.00;0.00;;;;;;;29.65;26.46;98241.69;5029970;28;20033;-84
2022/05/22 11:50:37;;;;;;;0.00;0.00;;;;;;;29.57;26.08;98243.06;5029111;28;20029;-84
2022/05/22 11:53:30;;;;;;;0.00;0.00;;;;;;;29.48;26.40;98246.34;5029679;28;20034;-84
2022/05/22 11:55:59;;;;;;;0.10;0.10;;;;;;;29.42;26.72;98237.03;5029595;28;20080;-84
2022/05/22 11:58:48;;;;;;;0.00;0.00;;;;;;;29.36;26.74;98239.53;5029670;28;20455;-83
2022/05/22 12:01:37;;;;;;;0.45;0.38;;;;;;;29.30;27.16;98232.97;5029923;28;20036;-84
2022/05/22 12:04:25;;;;;;;0.00;0.00;;;;;;;29.29;27.69;98228.63;5029586;28;20029;-84
2022/05/22 12:07:09;;;;;;;0.20;0.20;;;;;;;29.21;27.46;98237.00;5029971;28;20026;-83
2022/05/22 12:10:09;;;;;;;0.00;0.00;;;;;;;29.16;28.35;98229.25;5029903;28;20025;-84
2022/05/22 12:12:53;;;;;;;0.00;0.00;;;;;;;29.16;27.93;98231.22;5029838;28;20078;-84
2022/05/22 12:15:50;;;;;;;0.00;0.00;;;;;;;29.14;28.60;98228.88;5029520;28;20030;-84